sensor_id;sensor_type;location;lat;lon;timestamp;P1;durP1;ratioP1;P2;durP2;ratioP2
4806;SDS011;2417;52.482;13.432;2023-01-30T00:01:46;16.97;;;10.10;;
4806;SDS011;2417;52.482;13.432;2023-01-30T00:04:16;17.17;;;9.57;;
4806;SDS011;2417;52.482;13.432;2023-01-30T00:06:44;18.37;;;10.80;;
4806;SDS011;2417;52.482;13.432;2023-01-30T00:09:13;18.10;;;10.70;;
4806;SDS011;2417;52.482;13.432;2023-01-30T00:11:41;19.73;;;10.73;;
4806;SDS011;2417;52.482;13.432;2023-01-30T00:14:09;18.17;;;10.57;;
4806;SDS011;2417;52.482;13.432;2023-01-30T00:16:36;16.43;;;9.97;;
4806;SDS011;2417;52.482;13.432;2023-01-30T00:19:04;16.90;;;9.80;;
4806;SDS011;2417;52.482;13.432;2023-01-30T00:21:35;16.90;;;10.40;;
4806;SDS011;2417;52.482;13.432;2023-01-30T00:24:04;17.17;;;10.43;;
4806;SDS011;2417;52.482;13.432;2023-01-30T00:26:31;17.43;;;10.53;;
4806;SDS011;2417;52.482;13.432;2023-01-30T00:28:59;20.90;;;11.27;;
4806;SDS011;2417;52.482;13.432;2023-01-30T00:31:29;17.00;;;10.40;;
4806;SDS011;2417;52.482;13.432;2023-01-30T00:33:57;18.37;;;10.83;;
4806;SDS011;2417;52.482;13.432;2023-01-30T00:36:24;19.93;;;12.03;;
4806;SDS011;2417;52.482;13.432;2023-01-30T00:38:55;19.10;;;11.60;;
4806;SDS011;2417;52.482;13.432;2023-01-30T00:41:22;18.83;;;11.23;;
4806;SDS011;2417;52.482;13.432;2023-01-30T00:44:10;18.90;;;11.67;;
4806;SDS011;2417;52.482;13.432;2023-01-30T00:46:56;21.83;;;12.43;;
4806;SDS011;2417;52.482;13.432;2023-01-30T00:49:34;20.30;;;12.10;;
4806;SDS011;2417;52.482;13.432;2023-01-30T00:52:02;20.40;;;12.20;;
4806;SDS011;2417;52.482;13.432;2023-01-30T00:54:32;20.27;;;12.20;;
4806;SDS011;2417;52.482;13.432;2023-01-30T00:57:00;21.80;;;12.80;;
4806;SDS011;2417;52.482;13.432;2023-01-30T00:59:27;20.70;;;12.20;;
4806;SDS011;2417;52.482;13.432;2023-01-30T01:01:55;21.53;;;12.40;;
4806;SDS011;2417;52.482;13.432;2023-01-30T01:04:23;21.80;;;12.70;;
4806;SDS011;2417;52.482;13.432;2023-01-30T01:06:51;21.03;;;12.57;;
4806;SDS011;2417;52.482;13.432;2023-01-30T01:09:19;21.37;;;12.67;;
4806;SDS011;2417;52.482;13.432;2023-01-30T01:11:48;21.23;;;12.30;;
4806;SDS011;2417;52.482;13.432;2023-01-30T01:14:16;20.27;;;12.90;;
4806;SDS011;2417;52.482;13.432;2023-01-30T01:16:46;22.90;;;13.20;;
4806;SDS011;2417;52.482;13.432;2023-01-30T01:19:14;21.67;;;12.30;;
4806;SDS011;2417;52.482;13.432;2023-01-30T01:21:42;21.00;;;12.70;;
4806;SDS011;2417;52.482;13.432;2023-01-30T01:24:10;22.27;;;12.53;;
4806;SDS011;2417;52.482;13.432;2023-01-30T01:26:39;19.90;;;11.93;;
4806;SDS011;2417;52.482;13.432;2023-01-30T01:29:11;21.00;;;13.10;;
4806;SDS011;2417;52.482;13.432;2023-01-30T01:31:39;24.90;;;13.20;;
4806;SDS011;2417;52.482;13.432;2023-01-30T01:34:07;24.20;;;12.80;;
4806;SDS011;2417;52.482;13.432;2023-01-30T01:36:37;21.10;;;12.43;;
4806;SDS011;2417;52.482;13.432;2023-01-30T01:39:19;22.30;;;13.70;;
4806;SDS011;2417;52.482;13.432;2023-01-30T01:41:49;23.30;;;13.70;;
4806;SDS011;2417;52.482;13.432;2023-01-30T01:44:17;23.40;;;14.13;;
4806;SDS011;2417;52.482;13.432;2023-01-30T01:46:45;23.20;;;13.20;;
4806;SDS011;2417;52.482;13.432;2023-01-30T01:49:16;20.73;;;12.53;;
4806;SDS011;2417;52.482;13.432;2023-01-30T01:51:46;23.13;;;13.33;;
4806;SDS011;2417;52.482;13.432;2023-01-30T01:54:16;20.53;;;12.83;;
4806;SDS011;2417;52.482;13.432;2023-01-30T01:56:46;20.97;;;13.47;;
4806;SDS011;2417;52.482;13.432;2023-01-30T01:59:19;23.03;;;13.50;;
4806;SDS011;2417;52.482;13.432;2023-01-30T02:01:48;22.73;;;13.07;;
4806;SDS011;2417;52.482;13.432;2023-01-30T02:04:16;26.50;;;15.10;;
4806;SDS011;2417;52.482;13.432;2023-01-30T02:07:05;24.70;;;15.03;;
4806;SDS011;2417;52.482;13.432;2023-01-30T02:09:33;23.60;;;13.73;;
4806;SDS011;2417;52.482;13.432;2023-01-30T02:12:01;26.63;;;15.07;;
4806;SDS011;2417;52.482;13.432;2023-01-30T02:14:32;26.27;;;15.10;;
4806;SDS011;2417;52.482;13.432;2023-01-30T02:17:00;31.13;;;16.77;;
4806;SDS011;2417;52.482;13.432;2023-01-30T02:19:30;28.53;;;16.33;;
4806;SDS011;2417;52.482;13.432;2023-01-30T02:22:12;29.23;;;16.23;;
4806;SDS011;2417;52.482;13.432;2023-01-30T02:24:51;32.13;;;18.03;;
4806;SDS011;2417;52.482;13.432;2023-01-30T02:27:27;29.80;;;17.03;;
4806;SDS011;2417;52.482;13.432;2023-01-30T02:30:09;34.40;;;18.00;;
4806;SDS011;2417;52.482;13.432;2023-01-30T02:32:44;34.20;;;19.30;;
4806;SDS011;2417;52.482;13.432;2023-01-30T02:35:15;35.50;;;19.80;;
4806;SDS011;2417;52.482;13.432;2023-01-30T02:37:46;32.20;;;17.80;;
4806;SDS011;2417;52.482;13.432;2023-01-30T02:40:24;36.50;;;18.93;;
4806;SDS011;2417;52.482;13.432;2023-01-30T02:42:59;36.53;;;19.23;;
4806;SDS011;2417;52.482;13.432;2023-01-30T02:45:29;32.93;;;19.50;;
4806;SDS011;2417;52.482;13.432;2023-01-30T02:48:02;34.30;;;19.83;;
4806;SDS011;2417;52.482;13.432;2023-01-30T02:50:32;34.17;;;18.93;;
4806;SDS011;2417;52.482;13.432;2023-01-30T02:53:01;35.57;;;18.80;;
4806;SDS011;2417;52.482;13.432;2023-01-30T02:55:29;34.13;;;18.97;;
4806;SDS011;2417;52.482;13.432;2023-01-30T02:57:57;39.27;;;20.17;;
4806;SDS011;2417;52.482;13.432;2023-01-30T03:00:33;39.40;;;21.10;;
4806;SDS011;2417;52.482;13.432;2023-01-30T03:03:12;41.13;;;20.20;;
4806;SDS011;2417;52.482;13.432;2023-01-30T03:05:45;36.90;;;19.80;;
4806;SDS011;2417;52.482;13.432;2023-01-30T03:08:19;37.80;;;20.00;;
4806;SDS011;2417;52.482;13.432;2023-01-30T03:10:52;39.53;;;21.93;;
4806;SDS011;2417;52.482;13.432;2023-01-30T03:13:24;43.33;;;21.90;;
4806;SDS011;2417;52.482;13.432;2023-01-30T03:15:56;43.80;;;22.60;;
4806;SDS011;2417;52.482;13.432;2023-01-30T03:18:27;40.03;;;21.00;;
4806;SDS011;2417;52.482;13.432;2023-01-30T03:20:56;43.80;;;22.43;;
4806;SDS011;2417;52.482;13.432;2023-01-30T03:23:30;43.23;;;21.30;;
4806;SDS011;2417;52.482;13.432;2023-01-30T03:25:57;42.20;;;21.97;;
4806;SDS011;2417;52.482;13.432;2023-01-30T03:28:26;49.60;;;23.10;;
4806;SDS011;2417;52.482;13.432;2023-01-30T03:30:54;46.20;;;22.90;;
4806;SDS011;2417;52.482;13.432;2023-01-30T03:33:22;44.77;;;22.40;;
4806;SDS011;2417;52.482;13.432;2023-01-30T03:35:51;46.93;;;23.00;;
4806;SDS011;2417;52.482;13.432;2023-01-30T03:38:20;44.87;;;22.10;;
4806;SDS011;2417;52.482;13.432;2023-01-30T03:40:49;46.83;;;23.03;;
4806;SDS011;2417;52.482;13.432;2023-01-30T03:43:16;41.63;;;20.97;;
4806;SDS011;2417;52.482;13.432;2023-01-30T03:45:44;43.77;;;20.83;;
4806;SDS011;2417;52.482;13.432;2023-01-30T03:48:12;41.83;;;21.40;;
4806;SDS011;2417;52.482;13.432;2023-01-30T03:50:40;41.53;;;20.67;;
4806;SDS011;2417;52.482;13.432;2023-01-30T03:53:09;40.30;;;20.80;;
4806;SDS011;2417;52.482;13.432;2023-01-30T03:55:37;43.17;;;21.03;;
4806;SDS011;2417;52.482;13.432;2023-01-30T03:58:05;40.37;;;21.27;;
4806;SDS011;2417;52.482;13.432;2023-01-30T04:00:33;38.33;;;21.20;;
4806;SDS011;2417;52.482;13.432;2023-01-30T04:03:01;43.90;;;21.00;;
4806;SDS011;2417;52.482;13.432;2023-01-30T04:05:29;41.20;;;21.70;;
4806;SDS011;2417;52.482;13.432;2023-01-30T04:08:02;38.87;;;20.10;;
4806;SDS011;2417;52.482;13.432;2023-01-30T04:10:32;37.33;;;20.33;;
4806;SDS011;2417;52.482;13.432;2023-01-30T04:13:00;39.83;;;21.17;;
4806;SDS011;2417;52.482;13.432;2023-01-30T04:15:29;43.97;;;21.93;;
4806;SDS011;2417;52.482;13.432;2023-01-30T04:18:30;45.40;;;21.63;;
4806;SDS011;2417;52.482;13.432;2023-01-30T04:21:05;41.63;;;21.33;;
4806;SDS011;2417;52.482;13.432;2023-01-30T04:23:36;41.97;;;21.60;;
4806;SDS011;2417;52.482;13.432;2023-01-30T04:26:07;42.40;;;21.03;;
4806;SDS011;2417;52.482;13.432;2023-01-30T04:28:37;39.57;;;20.47;;
4806;SDS011;2417;52.482;13.432;2023-01-30T04:31:05;37.47;;;19.67;;
4806;SDS011;2417;52.482;13.432;2023-01-30T04:33:57;42.30;;;21.30;;
4806;SDS011;2417;52.482;13.432;2023-01-30T04:36:25;48.47;;;21.67;;
4806;SDS011;2417;52.482;13.432;2023-01-30T04:38:54;39.70;;;20.60;;
4806;SDS011;2417;52.482;13.432;2023-01-30T04:41:25;36.53;;;19.90;;
4806;SDS011;2417;52.482;13.432;2023-01-30T04:43:58;40.50;;;21.13;;
4806;SDS011;2417;52.482;13.432;2023-01-30T04:47:01;38.00;;;20.73;;
4806;SDS011;2417;52.482;13.432;2023-01-30T04:49:30;38.60;;;19.93;;
4806;SDS011;2417;52.482;13.432;2023-01-30T04:52:00;36.00;;;19.63;;
4806;SDS011;2417;52.482;13.432;2023-01-30T04:54:28;36.00;;;20.30;;
4806;SDS011;2417;52.482;13.432;2023-01-30T04:56:59;34.70;;;18.70;;
4806;SDS011;2417;52.482;13.432;2023-01-30T04:59:27;33.77;;;19.27;;
4806;SDS011;2417;52.482;13.432;2023-01-30T05:01:58;35.20;;;18.90;;
4806;SDS011;2417;52.482;13.432;2023-01-30T05:04:28;33.07;;;18.33;;
4806;SDS011;2417;52.482;13.432;2023-01-30T05:06:55;33.43;;;18.40;;
4806;SDS011;2417;52.482;13.432;2023-01-30T05:09:25;31.70;;;18.17;;
4806;SDS011;2417;52.482;13.432;2023-01-30T05:11:52;33.50;;;18.20;;
4806;SDS011;2417;52.482;13.432;2023-01-30T05:14:23;30.83;;;17.70;;
4806;SDS011;2417;52.482;13.432;2023-01-30T05:16:51;45.23;;;20.30;;
4806;SDS011;2417;52.482;13.432;2023-01-30T05:19:19;43.00;;;20.00;;
4806;SDS011;2417;52.482;13.432;2023-01-30T05:21:46;36.80;;;18.00;;
4806;SDS011;2417;52.482;13.432;2023-01-30T05:24:14;37.80;;;18.40;;
4806;SDS011;2417;52.482;13.432;2023-01-30T05:26:42;33.67;;;18.53;;
4806;SDS011;2417;52.482;13.432;2023-01-30T05:29:10;33.93;;;18.03;;
4806;SDS011;2417;52.482;13.432;2023-01-30T05:31:39;34.43;;;17.80;;
4806;SDS011;2417;52.482;13.432;2023-01-30T05:34:08;35.50;;;17.70;;
4806;SDS011;2417;52.482;13.432;2023-01-30T05:36:37;36.73;;;18.43;;
4806;SDS011;2417;52.482;13.432;2023-01-30T05:39:05;35.37;;;18.80;;
4806;SDS011;2417;52.482;13.432;2023-01-30T05:41:32;38.47;;;18.43;;
4806;SDS011;2417;52.482;13.432;2023-01-30T05:44:00;41.17;;;18.17;;
4806;SDS011;2417;52.482;13.432;2023-01-30T05:46:28;40.57;;;19.00;;
4806;SDS011;2417;52.482;13.432;2023-01-30T05:48:57;40.93;;;18.93;;
4806;SDS011;2417;52.482;13.432;2023-01-30T05:51:25;34.70;;;17.37;;
4806;SDS011;2417;52.482;13.432;2023-01-30T05:53:53;37.37;;;18.70;;
4806;SDS011;2417;52.482;13.432;2023-01-30T05:56:21;32.00;;;17.73;;
4806;SDS011;2417;52.482;13.432;2023-01-30T05:58:49;42.80;;;18.90;;
4806;SDS011;2417;52.482;13.432;2023-01-30T06:01:18;37.40;;;18.80;;
4806;SDS011;2417;52.482;13.432;2023-01-30T06:03:46;37.30;;;18.20;;
4806;SDS011;2417;52.482;13.432;2023-01-30T06:06:15;37.10;;;18.47;;
4806;SDS011;2417;52.482;13.432;2023-01-30T06:08:46;36.17;;;17.90;;
4806;SDS011;2417;52.482;13.432;2023-01-30T06:11:16;41.80;;;19.00;;
4806;SDS011;2417;52.482;13.432;2023-01-30T06:13:44;37.07;;;19.10;;
4806;SDS011;2417;52.482;13.432;2023-01-30T06:16:13;42.17;;;18.30;;
4806;SDS011;2417;52.482;13.432;2023-01-30T06:18:43;40.93;;;19.30;;
4806;SDS011;2417;52.482;13.432;2023-01-30T06:21:14;40.23;;;20.83;;
4806;SDS011;2417;52.482;13.432;2023-01-30T06:23:43;36.80;;;19.23;;
4806;SDS011;2417;52.482;13.432;2023-01-30T06:26:12;37.10;;;18.70;;
4806;SDS011;2417;52.482;13.432;2023-01-30T06:28:40;39.63;;;19.37;;
4806;SDS011;2417;52.482;13.432;2023-01-30T06:31:08;41.53;;;18.87;;
4806;SDS011;2417;52.482;13.432;2023-01-30T06:33:36;38.57;;;18.87;;
4806;SDS011;2417;52.482;13.432;2023-01-30T06:36:04;38.30;;;19.73;;
4806;SDS011;2417;52.482;13.432;2023-01-30T06:38:31;41.37;;;19.60;;
4806;SDS011;2417;52.482;13.432;2023-01-30T06:41:01;41.70;;;19.23;;
4806;SDS011;2417;52.482;13.432;2023-01-30T06:43:29;39.37;;;20.07;;
4806;SDS011;2417;52.482;13.432;2023-01-30T06:45:57;41.33;;;19.50;;
4806;SDS011;2417;52.482;13.432;2023-01-30T06:48:27;39.97;;;19.17;;
4806;SDS011;2417;52.482;13.432;2023-01-30T06:50:54;38.97;;;18.03;;
4806;SDS011;2417;52.482;13.432;2023-01-30T06:53:22;41.47;;;18.87;;
4806;SDS011;2417;52.482;13.432;2023-01-30T06:55:56;43.57;;;19.70;;
4806;SDS011;2417;52.482;13.432;2023-01-30T06:58:25;42.60;;;18.63;;
4806;SDS011;2417;52.482;13.432;2023-01-30T07:00:53;39.03;;;18.50;;
4806;SDS011;2417;52.482;13.432;2023-01-30T07:03:21;42.07;;;18.63;;
4806;SDS011;2417;52.482;13.432;2023-01-30T07:05:50;35.40;;;17.33;;
4806;SDS011;2417;52.482;13.432;2023-01-30T07:08:18;39.80;;;18.40;;
4806;SDS011;2417;52.482;13.432;2023-01-30T07:10:48;32.30;;;16.73;;
4806;SDS011;2417;52.482;13.432;2023-01-30T07:13:16;32.47;;;16.17;;
4806;SDS011;2417;52.482;13.432;2023-01-30T07:15:45;32.50;;;17.00;;
4806;SDS011;2417;52.482;13.432;2023-01-30T07:18:13;35.10;;;16.97;;
4806;SDS011;2417;52.482;13.432;2023-01-30T07:20:45;30.10;;;14.57;;
4806;SDS011;2417;52.482;13.432;2023-01-30T07:23:13;27.90;;;14.63;;
4806;SDS011;2417;52.482;13.432;2023-01-30T07:25:41;30.30;;;15.10;;
4806;SDS011;2417;52.482;13.432;2023-01-30T07:28:09;29.17;;;14.23;;
4806;SDS011;2417;52.482;13.432;2023-01-30T07:30:37;24.53;;;13.30;;
4806;SDS011;2417;52.482;13.432;2023-01-30T07:33:07;27.10;;;14.27;;
4806;SDS011;2417;52.482;13.432;2023-01-30T07:35:35;27.43;;;13.87;;
4806;SDS011;2417;52.482;13.432;2023-01-30T07:38:03;30.50;;;14.20;;
4806;SDS011;2417;52.482;13.432;2023-01-30T07:40:31;25.67;;;14.20;;
4806;SDS011;2417;52.482;13.432;2023-01-30T07:43:00;25.00;;;13.17;;
4806;SDS011;2417;52.482;13.432;2023-01-30T07:45:28;27.03;;;13.33;;
4806;SDS011;2417;52.482;13.432;2023-01-30T07:47:58;27.17;;;12.90;;
4806;SDS011;2417;52.482;13.432;2023-01-30T07:50:27;27.60;;;13.20;;
4806;SDS011;2417;52.482;13.432;2023-01-30T07:52:55;21.93;;;12.33;;
4806;SDS011;2417;52.482;13.432;2023-01-30T07:55:23;20.97;;;11.90;;
4806;SDS011;2417;52.482;13.432;2023-01-30T07:57:52;18.77;;;10.57;;
4806;SDS011;2417;52.482;13.432;2023-01-30T08:00:20;17.43;;;10.47;;
4806;SDS011;2417;52.482;13.432;2023-01-30T08:02:48;21.20;;;11.20;;
4806;SDS011;2417;52.482;13.432;2023-01-30T08:05:16;14.53;;;9.70;;
4806;SDS011;2417;52.482;13.432;2023-01-30T08:07:45;13.60;;;8.50;;
4806;SDS011;2417;52.482;13.432;2023-01-30T08:10:14;13.70;;;7.87;;
4806;SDS011;2417;52.482;13.432;2023-01-30T08:12:42;12.67;;;8.77;;
4806;SDS011;2417;52.482;13.432;2023-01-30T08:15:10;15.03;;;8.50;;
4806;SDS011;2417;52.482;13.432;2023-01-30T08:17:38;16.83;;;8.90;;
4806;SDS011;2417;52.482;13.432;2023-01-30T08:20:06;15.30;;;9.00;;
4806;SDS011;2417;52.482;13.432;2023-01-30T08:22:34;15.60;;;8.40;;
4806;SDS011;2417;52.482;13.432;2023-01-30T08:25:05;11.57;;;8.43;;
4806;SDS011;2417;52.482;13.432;2023-01-30T08:27:33;14.80;;;8.63;;
4806;SDS011;2417;52.482;13.432;2023-01-30T08:30:01;15.43;;;8.73;;
4806;SDS011;2417;52.482;13.432;2023-01-30T08:32:29;14.00;;;8.77;;
4806;SDS011;2417;52.482;13.432;2023-01-30T08:34:57;13.47;;;8.77;;
4806;SDS011;2417;52.482;13.432;2023-01-30T08:37:24;11.47;;;7.70;;
4806;SDS011;2417;52.482;13.432;2023-01-30T08:39:52;12.77;;;8.23;;
4806;SDS011;2417;52.482;13.432;2023-01-30T08:42:21;9.90;;;6.83;;
4806;SDS011;2417;52.482;13.432;2023-01-30T08:44:49;10.20;;;6.73;;
4806;SDS011;2417;52.482;13.432;2023-01-30T08:47:17;12.10;;;7.07;;
4806;SDS011;2417;52.482;13.432;2023-01-30T08:49:45;12.13;;;7.47;;
4806;SDS011;2417;52.482;13.432;2023-01-30T08:52:13;10.80;;;7.10;;
4806;SDS011;2417;52.482;13.432;2023-01-30T08:54:40;12.70;;;7.30;;
4806;SDS011;2417;52.482;13.432;2023-01-30T08:57:08;10.57;;;6.33;;
4806;SDS011;2417;52.482;13.432;2023-01-30T08:59:37;13.40;;;6.80;;
4806;SDS011;2417;52.482;13.432;2023-01-30T09:02:07;12.00;;;7.37;;
4806;SDS011;2417;52.482;13.432;2023-01-30T09:04:35;10.33;;;6.30;;
4806;SDS011;2417;52.482;13.432;2023-01-30T09:07:03;10.83;;;6.47;;
4806;SDS011;2417;52.482;13.432;2023-01-30T09:09:31;14.13;;;7.27;;
4806;SDS011;2417;52.482;13.432;2023-01-30T09:11:59;9.43;;;6.30;;
4806;SDS011;2417;52.482;13.432;2023-01-30T09:14:27;11.73;;;6.40;;
4806;SDS011;2417;52.482;13.432;2023-01-30T09:16:56;11.97;;;5.63;;
4806;SDS011;2417;52.482;13.432;2023-01-30T09:19:25;8.50;;;5.40;;
4806;SDS011;2417;52.482;13.432;2023-01-30T09:21:53;8.00;;;4.80;;
4806;SDS011;2417;52.482;13.432;2023-01-30T09:24:21;7.50;;;4.60;;
4806;SDS011;2417;52.482;13.432;2023-01-30T09:26:52;11.03;;;5.70;;
4806;SDS011;2417;52.482;13.432;2023-01-30T09:29:19;13.20;;;8.50;;
4806;SDS011;2417;52.482;13.432;2023-01-30T09:31:48;11.90;;;7.20;;
4806;SDS011;2417;52.482;13.432;2023-01-30T09:34:17;13.57;;;6.30;;
4806;SDS011;2417;52.482;13.432;2023-01-30T09:36:45;13.00;;;5.03;;
4806;SDS011;2417;52.482;13.432;2023-01-30T09:39:13;9.97;;;4.70;;
4806;SDS011;2417;52.482;13.432;2023-01-30T09:41:45;8.93;;;4.70;;
4806;SDS011;2417;52.482;13.432;2023-01-30T09:44:24;10.50;;;5.00;;
4806;SDS011;2417;52.482;13.432;2023-01-30T09:46:59;5.83;;;4.00;;
4806;SDS011;2417;52.482;13.432;2023-01-30T09:49:33;10.97;;;4.17;;
4806;SDS011;2417;52.482;13.432;2023-01-30T09:52:07;9.97;;;3.83;;
4806;SDS011;2417;52.482;13.432;2023-01-30T09:54:43;6.37;;;3.80;;
4806;SDS011;2417;52.482;13.432;2023-01-30T09:57:13;10.57;;;4.13;;
4806;SDS011;2417;52.482;13.432;2023-01-30T09:59:51;10.50;;;4.47;;
4806;SDS011;2417;52.482;13.432;2023-01-30T10:02:23;8.80;;;3.37;;
4806;SDS011;2417;52.482;13.432;2023-01-30T10:04:56;9.23;;;3.30;;
4806;SDS011;2417;52.482;13.432;2023-01-30T10:07:31;7.67;;;3.47;;
4806;SDS011;2417;52.482;13.432;2023-01-30T10:10:04;11.53;;;3.00;;
4806;SDS011;2417;52.482;13.432;2023-01-30T10:12:38;10.73;;;3.20;;
4806;SDS011;2417;52.482;13.432;2023-01-30T10:15:13;7.50;;;2.77;;
4806;SDS011;2417;52.482;13.432;2023-01-30T10:17:57;15.73;;;2.67;;
4806;SDS011;2417;52.482;13.432;2023-01-30T10:20:32;7.87;;;2.60;;
4806;SDS011;2417;52.482;13.432;2023-01-30T10:23:10;13.00;;;3.13;;
4806;SDS011;2417;52.482;13.432;2023-01-30T10:25:43;13.60;;;2.23;;
4806;SDS011;2417;52.482;13.432;2023-01-30T10:28:14;13.90;;;2.70;;
4806;SDS011;2417;52.482;13.432;2023-01-30T10:30:43;10.10;;;2.33;;
4806;SDS011;2417;52.482;13.432;2023-01-30T10:33:18;20.60;;;3.07;;
4806;SDS011;2417;52.482;13.432;2023-01-30T10:35:53;13.53;;;2.70;;
4806;SDS011;2417;52.482;13.432;2023-01-30T10:38:25;10.37;;;2.23;;
4806;SDS011;2417;52.482;13.432;2023-01-30T10:40:57;11.67;;;2.57;;
4806;SDS011;2417;52.482;13.432;2023-01-30T10:43:26;14.53;;;2.37;;
4806;SDS011;2417;52.482;13.432;2023-01-30T10:45:57;13.50;;;2.87;;
4806;SDS011;2417;52.482;13.432;2023-01-30T10:48:35;13.87;;;2.43;;
4806;SDS011;2417;52.482;13.432;2023-01-30T10:51:17;17.67;;;3.10;;
4806;SDS011;2417;52.482;13.432;2023-01-30T10:53:49;12.63;;;2.97;;
4806;SDS011;2417;52.482;13.432;2023-01-30T10:56:21;18.33;;;2.53;;
4806;SDS011;2417;52.482;13.432;2023-01-30T10:58:53;19.17;;;2.50;;
4806;SDS011;2417;52.482;13.432;2023-01-30T11:01:27;20.27;;;2.13;;
4806;SDS011;2417;52.482;13.432;2023-01-30T11:03:59;14.17;;;2.27;;
4806;SDS011;2417;52.482;13.432;2023-01-30T11:06:29;11.97;;;2.40;;
4806;SDS011;2417;52.482;13.432;2023-01-30T11:08:58;15.33;;;2.50;;
4806;SDS011;2417;52.482;13.432;2023-01-30T11:11:27;12.60;;;2.20;;
4806;SDS011;2417;52.482;13.432;2023-01-30T11:14:02;10.97;;;2.10;;
4806;SDS011;2417;52.482;13.432;2023-01-30T11:16:30;10.70;;;2.13;;
4806;SDS011;2417;52.482;13.432;2023-01-30T11:18:59;16.10;;;2.73;;
4806;SDS011;2417;52.482;13.432;2023-01-30T11:21:50;9.37;;;2.50;;
4806;SDS011;2417;52.482;13.432;2023-01-30T11:24:19;21.50;;;3.00;;
4806;SDS011;2417;52.482;13.432;2023-01-30T11:26:47;10.47;;;1.80;;
4806;SDS011;2417;52.482;13.432;2023-01-30T11:29:23;14.80;;;2.40;;
4806;SDS011;2417;52.482;13.432;2023-01-30T11:31:51;11.93;;;2.90;;
4806;SDS011;2417;52.482;13.432;2023-01-30T11:34:22;9.40;;;2.00;;
4806;SDS011;2417;52.482;13.432;2023-01-30T11:36:51;15.60;;;2.30;;
4806;SDS011;2417;52.482;13.432;2023-01-30T11:39:26;11.43;;;2.57;;
4806;SDS011;2417;52.482;13.432;2023-01-30T11:41:56;9.13;;;1.77;;
4806;SDS011;2417;52.482;13.432;2023-01-30T11:44:27;18.13;;;2.90;;
4806;SDS011;2417;52.482;13.432;2023-01-30T11:46:57;16.90;;;3.17;;
4806;SDS011;2417;52.482;13.432;2023-01-30T11:49:27;16.77;;;2.93;;
4806;SDS011;2417;52.482;13.432;2023-01-30T11:52:18;20.10;;;3.00;;
4806;SDS011;2417;52.482;13.432;2023-01-30T11:54:48;11.70;;;2.30;;
4806;SDS011;2417;52.482;13.432;2023-01-30T11:57:16;25.27;;;3.33;;
4806;SDS011;2417;52.482;13.432;2023-01-30T11:59:45;17.00;;;3.00;;
4806;SDS011;2417;52.482;13.432;2023-01-30T12:02:15;17.80;;;2.60;;
4806;SDS011;2417;52.482;13.432;2023-01-30T12:07:19;217.70;;;72.07;;
4806;SDS011;2417;52.482;13.432;2023-01-30T12:09:47;84.97;;;27.77;;
4806;SDS011;2417;52.482;13.432;2023-01-30T12:15:17;21.93;;;3.60;;
4806;SDS011;2417;52.482;13.432;2023-01-30T12:17:50;10.80;;;2.80;;
4806;SDS011;2417;52.482;13.432;2023-01-30T12:20:22;18.97;;;4.40;;
4806;SDS011;2417;52.482;13.432;2023-01-30T12:22:54;18.67;;;3.50;;
4806;SDS011;2417;52.482;13.432;2023-01-30T12:25:28;17.53;;;3.70;;
4806;SDS011;2417;52.482;13.432;2023-01-30T12:28:00;18.53;;;4.43;;
4806;SDS011;2417;52.482;13.432;2023-01-30T12:30:31;17.67;;;4.77;;
4806;SDS011;2417;52.482;13.432;2023-01-30T12:33:01;27.20;;;5.47;;
4806;SDS011;2417;52.482;13.432;2023-01-30T12:35:31;25.73;;;5.20;;
4806;SDS011;2417;52.482;13.432;2023-01-30T12:38:06;17.13;;;3.93;;
4806;SDS011;2417;52.482;13.432;2023-01-30T12:40:38;26.47;;;4.23;;
4806;SDS011;2417;52.482;13.432;2023-01-30T12:43:22;24.60;;;4.20;;
4806;SDS011;2417;52.482;13.432;2023-01-30T12:45:56;19.97;;;3.53;;
4806;SDS011;2417;52.482;13.432;2023-01-30T12:48:38;20.40;;;3.70;;
4806;SDS011;2417;52.482;13.432;2023-01-30T12:51:34;22.50;;;3.60;;
4806;SDS011;2417;52.482;13.432;2023-01-30T12:54:08;21.50;;;3.47;;
4806;SDS011;2417;52.482;13.432;2023-01-30T12:56:46;16.30;;;3.47;;
4806;SDS011;2417;52.482;13.432;2023-01-30T12:59:17;12.17;;;2.93;;
4806;SDS011;2417;52.482;13.432;2023-01-30T13:01:50;19.03;;;3.20;;
4806;SDS011;2417;52.482;13.432;2023-01-30T13:04:24;16.40;;;3.53;;
4806;SDS011;2417;52.482;13.432;2023-01-30T13:07:02;11.20;;;3.10;;
4806;SDS011;2417;52.482;13.432;2023-01-30T13:09:37;17.90;;;2.83;;
4806;SDS011;2417;52.482;13.432;2023-01-30T13:12:08;16.03;;;2.93;;
4806;SDS011;2417;52.482;13.432;2023-01-30T13:14:40;10.80;;;2.50;;
4806;SDS011;2417;52.482;13.432;2023-01-30T13:17:15;11.73;;;2.43;;
4806;SDS011;2417;52.482;13.432;2023-01-30T13:19:46;15.67;;;3.10;;
4806;SDS011;2417;52.482;13.432;2023-01-30T13:22:17;12.20;;;2.90;;
4806;SDS011;2417;52.482;13.432;2023-01-30T13:24:52;17.57;;;2.90;;
4806;SDS011;2417;52.482;13.432;2023-01-30T13:27:21;11.50;;;2.10;;
4806;SDS011;2417;52.482;13.432;2023-01-30T13:29:49;19.20;;;2.57;;
4806;SDS011;2417;52.482;13.432;2023-01-30T13:32:20;8.07;;;2.07;;
4806;SDS011;2417;52.482;13.432;2023-01-30T13:34:48;13.63;;;2.73;;
4806;SDS011;2417;52.482;13.432;2023-01-30T13:37:17;12.53;;;2.23;;
4806;SDS011;2417;52.482;13.432;2023-01-30T13:39:46;12.87;;;2.57;;
4806;SDS011;2417;52.482;13.432;2023-01-30T13:42:23;14.87;;;3.07;;
4806;SDS011;2417;52.482;13.432;2023-01-30T13:44:52;11.87;;;2.57;;
4806;SDS011;2417;52.482;13.432;2023-01-30T13:47:24;17.57;;;3.17;;
4806;SDS011;2417;52.482;13.432;2023-01-30T13:49:56;10.10;;;2.37;;
4806;SDS011;2417;52.482;13.432;2023-01-30T13:52:28;23.60;;;5.50;;
4806;SDS011;2417;52.482;13.432;2023-01-30T13:55:00;25.97;;;4.10;;
4806;SDS011;2417;52.482;13.432;2023-01-30T13:57:39;18.83;;;2.90;;
4806;SDS011;2417;52.482;13.432;2023-01-30T14:08:34;18.03;;;3.17;;
4806;SDS011;2417;52.482;13.432;2023-01-30T14:13:51;25.40;;;3.40;;
4806;SDS011;2417;52.482;13.432;2023-01-30T14:16:20;16.17;;;3.50;;
4806;SDS011;2417;52.482;13.432;2023-01-30T14:18:48;14.80;;;3.20;;
4806;SDS011;2417;52.482;13.432;2023-01-30T14:21:17;12.20;;;2.60;;
4806;SDS011;2417;52.482;13.432;2023-01-30T14:23:53;12.20;;;3.13;;
4806;SDS011;2417;52.482;13.432;2023-01-30T14:29:06;9.97;;;2.47;;
4806;SDS011;2417;52.482;13.432;2023-01-30T14:31:44;10.30;;;2.67;;
4806;SDS011;2417;52.482;13.432;2023-01-30T14:37:28;12.47;;;3.07;;
4806;SDS011;2417;52.482;13.432;2023-01-30T14:39:56;9.83;;;2.30;;
4806;SDS011;2417;52.482;13.432;2023-01-30T14:42:25;8.83;;;2.30;;
4806;SDS011;2417;52.482;13.432;2023-01-30T14:44:58;6.00;;;2.20;;
4806;SDS011;2417;52.482;13.432;2023-01-30T14:47:29;6.17;;;2.40;;
4806;SDS011;2417;52.482;13.432;2023-01-30T14:50:15;6.10;;;1.40;;
4806;SDS011;2417;52.482;13.432;2023-01-30T14:52:45;6.50;;;2.00;;
4806;SDS011;2417;52.482;13.432;2023-01-30T14:55:15;2.90;;;1.50;;
4806;SDS011;2417;52.482;13.432;2023-01-30T14:57:47;4.30;;;1.37;;
4806;SDS011;2417;52.482;13.432;2023-01-30T15:00:22;5.73;;;2.40;;
4806;SDS011;2417;52.482;13.432;2023-01-30T15:02:54;6.97;;;2.20;;
4806;SDS011;2417;52.482;13.432;2023-01-30T15:05:25;15.70;;;3.40;;
4806;SDS011;2417;52.482;13.432;2023-01-30T15:07:54;5.63;;;2.10;;
4806;SDS011;2417;52.482;13.432;2023-01-30T15:10:29;7.13;;;2.67;;
4806;SDS011;2417;52.482;13.432;2023-01-30T15:13:07;8.80;;;1.90;;
4806;SDS011;2417;52.482;13.432;2023-01-30T15:15:41;8.77;;;2.70;;
4806;SDS011;2417;52.482;13.432;2023-01-30T15:18:20;12.70;;;2.17;;
4806;SDS011;2417;52.482;13.432;2023-01-30T15:20:58;6.40;;;1.70;;
4806;SDS011;2417;52.482;13.432;2023-01-30T15:23:40;8.83;;;2.90;;
4806;SDS011;2417;52.482;13.432;2023-01-30T15:26:14;12.03;;;2.70;;
4806;SDS011;2417;52.482;13.432;2023-01-30T15:28:48;5.90;;;2.30;;